Pomeroy, Iowa
Current Conditions -  °F | °C
As of 2:35 PM on Monday 24 Nov 2014 (Local Time) from KFOD Reporting Station
Overcast Overcast  
Wind Chill: 12°   Ceiling: 2500
Heat Index: 25°   Visibility: 10mi
Dew Point: 16°   Wind: 15mph
Humidity: 69%   Direction: 300°WNW
Pressure: 29.68"   Gusts: 25mph
Location:  42.55°N, 94.68°W
Report Text: KFOD 242035Z AUTO 30013G22KT 10SM OVC025 M04/M09 A2968 RMK AO1
Loading
Personal Weather Stations






























Interactive Weather Map New forecast layout! Learn more

10-Day Weather Forecast

Advertisements
Track Severe Weather on mobile